Tiempo atmosférico en la estación meteorológica de Bañobárez, Salamanca (748 m.)



Fecha
DESCASC
Temp. máxima en grados centígrados (hora)
DESCASC
Temp. mínima en grados centígrados (hora)
DESCASC
Temp. media en grados centígrados
DESCASC
Racha de viento máxima en m/sg (hora)
DESCASC
Velocidad máxima media en intervalos de 10 minutos(hora)
DESCASC
Precipitaciones diarias en mm
DESCASC
Precipitaciones de 00:00 a 06:00 en mm
DESCASC
Precipitaciones de 06:00 a 12:00 en mm
DESCASC
Precipitaciones de 12:00 a 18:00 en mm
DESCASC
Precipitaciones de 18:00 a 24:00 en mm
DESCASC
06-12-2018 14 (15:10) 2.6 (23:59) 8.3 4.44 (13:50) 2.78 (13:40) 0 0 0 0 0
05-12-2018 15.4 (17:00) 2.1 (07:40) 8.7 4.72 (15:00) 3.33 (12:50) 0 0 0 0 0
04-12-2018 16.7 (16:20) 4.7 (05:20) 10.7 4.72 (07:00) 3.06 (07:00) 0 0 0 0 0
03-12-2018 14 (15:40) 5.9 (00:00) 10 6.11 (13:50) 3.89 (13:50) 0 0 0 0 0
02-12-2018 13.1 (14:50) 5.2 (00:00) 9.2 8.89 (14:40) 5.83 (14:40) 0 0 0 0 0
01-12-2018 10.7 (14:10) 2 (00:00) 6.3 8.06 (15:50) 5.28 (15:50) 0 0 0 0 0
30-11-2018 9.4 (15:30) 2 (00:00) 5.7 5.56 (14:30) 3.33 (15:20) 0 0 0 0 0
29-11-2018 10.4 (11:50) 2.9 (00:00) 6.6 11.67 (11:00) 7.5 (12:00) 16.8 0 0 16.8 0
28-11-2018 13.3 (16:30) 1.5 (00:00) 7.4 8.06 (19:10) 5 (19:20) 0 0 0 0 0
27-11-2018 12.9 (16:10) 1.6 (00:00) 7.2 5.83 (16:10) 3.61 (11:10) 0 0 0 0 0
25-11-2018 10.5 (14:50) 7.3 (00:00) 8.9 16.11 (23:40) 9.17 (23:40) 16.4 4.8 1.6 1 9
24-11-2018 10 (13:40) 5.5 (00:00) 7.8 13.33 (20:40) 7.78 (20:40) 4 0 0 0.2 3.8
23-11-2018 8.6 (15:40) 3.4 (00:00) 6 7.5 (14:50) 4.72 (14:50) 2 0.4 0 0.8 0.8
22-11-2018 9.8 (15:50) 5 (00:00) 7.4 8.89 (16:00) 5.56 (14:10) 1.8 1 0 0.2 0.6
21-11-2018 9.6 (13:50) 5 (00:00) 7.3 11.39 (14:00) 6.39 (14:00) 3.4 0.8 1.8 0.8 0
20-11-2018 8.9 (00:20) 7 (00:00) 7.9 8.33 (13:50) 5 (13:40) 5.8 3.8 0.4 1.2 0.4
19-11-2018 11.2 (15:50) 5.9 (00:00) 8.5 5.28 (23:50) 3.61 (23:50) 0 0 0 0 0
18-11-2018 13.2 (12:50) 8 (00:00) 10.6 5.28 (01:50) 3.61 (01:50) 7.6 0 0 5.8 1.8
17-11-2018 16.3 (14:50) 6.1 (00:00) 11.2 8.61 (13:00) 5 (13:10) 0 0 0 0 0
16-11-2018 14.7 (15:40) 4.6 (00:00) 9.6 3.89 (16:40) 2.78 (04:40) 0.2 0 0.2 0 0
15-11-2018 16.5 (16:10) 6.9 (00:00) 11.7 5.28 (01:30) 3.61 (01:30) 0 0 0 0 0
14-11-2018 11.4 (17:10) 6.9 (00:00) 9.1 4.44 (22:50) 2.5 (00:10) 0 0 0 0 0
13-11-2018 10 (16:00) 3.4 (00:00) 6.7 8.06 (17:20) 4.44 (17:30) 0 0 0 0 0
12-11-2018 9.6 (15:40) 4.9 (00:00) 7.3 6.39 (00:20) 3.89 (00:20) 0 0 0 0 0
11-11-2018 12.9 (12:40) 7.5 (00:00) 10.2 12.78 (13:20) 7.78 (13:20) 39.2 0 1 28.4 9.8
10-11-2018 12.9 (16:50) 8.5 (00:00) 10.7 14.17 (14:40) 8.06 (14:40) 16 1 15 0 0

Gráficas

Temp. máximas Temp. mínimas Temp. medias Precipitaciones Rachas de viento máximas Velocidades máximas media en intervalos de 10 minutos

Datos horarios

Fecha y hora oficial Temperatura (ºC) Velocidad del viento (km/h) Dirección del viento Racha (km/h) Dirección de racha Precipitación (mm) Presión (hPa) Tendencia (hPa) Humedad (%)
2018-12-09 23:00:00 5.2 2 Este 4 Este 0 -- -- 96
2018-12-09 22:00:00 4.9 0 Calma 2 Sudeste 0 -- -- 95
2018-12-09 21:00:00 5.8 0 Calma 0 Calma 0 -- -- 93
2018-12-09 20:00:00 6.4 0 Calma -- -- 0 -- -- 91
2018-12-09 19:00:00 8.3 0 Calma 2 Oeste 0 -- -- 87
2018-12-09 18:00:00 13.1 0 Calma 4 Oeste 0 -- -- 72
2018-12-09 17:00:00 15.7 3 Norte 6 Norte 0 -- -- 61
2018-12-09 16:00:00 15.9 4 Noroeste 8 Noroeste 0 -- -- 62
2018-12-09 15:00:00 15.2 3 Norte 9 Noroeste 0 -- -- 64
2018-12-09 14:00:00 14.2 0 Calma 7 Norte 0 -- -- 73
2018-12-09 13:00:00 12.8 3 Nordeste 8 Norte 0 -- -- 77
2018-12-09 12:00:00 11.5 3 Sudoeste 9 Sur 0 -- -- 81
2018-12-09 11:00:00 9.8 5 Sur 9 Sur 0 -- -- 82
2018-12-09 10:00:00 7.2 0 Calma 7 Sur 0 -- -- 92
2018-12-09 09:00:00 3.2 2 Sur 3 Sur 0 -- -- 95
2018-12-09 08:00:00 3 0 Calma 3 Sudoeste 0 -- -- 94
2018-12-09 07:00:00 3.3 0 Calma 8 Sur 0 -- -- 90
2018-12-09 06:00:00 3.5 0 Calma 13 Sur 0 -- -- 88
2018-12-09 05:00:00 4.2 7 Sur 10 Sur 0 -- -- 91
2018-12-09 04:00:00 4.3 2 Sur 12 Sur 0 -- -- 90
2018-12-09 03:00:00 4.7 7 Sur 11 Sur 0 -- -- 89
2018-12-09 02:00:00 5.2 7 Sur 12 Sur 0 -- -- 89
2018-12-09 01:00:00 5.5 10 Sur 12 Sur 0 -- -- 89
2018-12-09 00:00:00 5.5 8 Sur 12 Sudoeste 0 -- -- 85
2018-12-08 23:00:00 4.2 3 Sudoeste 8 Sur 0 -- -- 86
2018-12-08 22:00:00 4 2 Sudoeste 5 Oeste 0 -- -- 87
2018-12-08 21:00:00 4.3 0 Calma 3 Sudoeste 0 -- -- 86
2018-12-08 20:00:00 5.1 0 Calma 6 Oeste 0 -- -- 83
2018-12-08 19:00:00 7.3 5 Oeste 8 Oeste 0 -- -- 79
2018-12-08 18:00:00 10.6 4 Oeste 10 Noroeste 0 -- -- 70
2018-12-08 17:00:00 12.9 5 Noroeste 10 Oeste 0 -- -- 62
2018-12-08 16:00:00 13.1 2 Oeste 6 Noroeste 0 -- -- 61
2018-12-08 15:00:00 12.2 2 Noroeste 11 Oeste 0 -- -- 64
2018-12-08 14:00:00 10.9 5 Norte 9 Oeste 0 -- -- 63
2018-12-08 13:00:00 10.2 5 Oeste 8 Oeste 0 -- -- 70
2018-12-08 12:00:00 8.6 2 Este 8 Norte 0 -- -- 77
2018-12-08 11:00:00 7.5 2 Norte 11 Noroeste 0 -- -- 87
2018-12-08 10:00:00 6.3 5 Oeste 10 Oeste 0 -- -- 97
2018-12-08 09:00:00 6.2 5 Noroeste 10 Noroeste 0 -- -- 96
2018-12-08 08:00:00 6.3 7 Oeste 12 Noroeste 0 -- -- 96
2018-12-08 07:00:00 7.1 4 Noroeste 14 Noroeste 0 -- -- 97
2018-12-08 06:00:00 7.4 5 Noroeste 11 Noroeste 0 -- -- 98
2018-12-08 05:00:00 7.8 6 Noroeste 14 Oeste 0 -- -- 97
2018-12-08 04:00:00 8 4 Oeste 10 Sudoeste 0 -- -- 98
2018-12-08 03:00:00 8.3 4 Sudoeste 10 Oeste 0 -- -- 98
2018-12-08 02:00:00 8.3 5 Oeste 17 Oeste 0 -- -- 98
2018-12-08 01:00:00 8.2 9 Oeste 18 Oeste 0 -- -- 98
2018-12-08 00:00:00 7.8 6 Sudoeste 12 Sudoeste 0 -- -- 97
2018-12-07 23:00:00 8.2 5 Oeste 10 Oeste 0 -- -- 96
2018-12-07 22:00:00 8.3 5 Oeste 10 Sudoeste 0 -- -- 95
2018-12-07 21:00:00 8.3 4 Sudoeste 11 Sudoeste 0 -- -- 94
2018-12-07 20:00:00 8.3 5 Sur 8 Sur 0 -- -- 93
2018-12-07 19:00:00 7.9 3 Sur 12 Oeste 0 -- -- 91
2018-12-07 18:00:00 9.3 7 Oeste 12 Sudoeste 0 -- -- 89
2018-12-07 17:00:00 9.5 5 Oeste 18 Noroeste 0 -- -- 88
2018-12-07 16:00:00 10 13 Noroeste 19 Noroeste 0 -- -- 85
2018-12-07 15:00:00 9.8 12 Noroeste 20 Noroeste 0 -- -- 85
2018-12-07 14:00:00 10.8 11 Noroeste 18 Oeste 0 -- -- 82
2018-12-07 13:00:00 11 8 Oeste 13 Sudoeste 0 -- -- 76
2018-12-07 12:00:00 9.3 5 Sudoeste 12 Sudoeste 0 -- -- 92
2018-12-07 11:00:00 6.1 10 Sur 14 Sur 0 -- -- 98
2018-12-07 10:00:00 3.8 2 Sur 9 Sudeste 0 -- -- 100
2018-12-07 09:00:00 1.3 3 Sur 10 Noroeste 0 -- -- 99
2018-12-07 08:00:00 2.5 3 Sur 13 Sur 0 -- -- 98
2018-12-07 07:00:00 2.2 5 Sur 12 Sur 0 -- -- 98
2018-12-07 06:00:00 2.9 6 Sur 10 Sur 0 -- -- 98
2018-12-07 05:00:00 3.3 2 Sur 9 Sur 0 -- -- 98
2018-12-07 04:00:00 4 7 Sur 11 Sur 0.2 -- -- 98
2018-12-07 03:00:00 3.9 6 Sur 9 Sur 0 -- -- 99
2018-12-07 02:00:00 2.9 2 Sur 5 Sur 0 -- -- 97
2018-12-07 01:00:00 2.9 2 Sur 7 Sur 0 -- -- 97
2018-12-07 00:00:00 2.6 0 Calma 0 Calma 0 -- -- 97
2018-12-06 23:00:00 3.2 0 Calma 2 Oeste 0 -- -- 96
2018-12-06 22:00:00 3.4 0 Calma 0 Calma 0 -- -- 95
2018-12-06 21:00:00 4.4 0 Calma 2 Sudeste 0 -- -- 95
2018-12-06 20:00:00 4.7 0 Calma 0 Calma 0 -- -- 92
2018-12-06 19:00:00 6.8 0 Calma 6 Oeste 0 -- -- 83
2018-12-06 18:00:00 11.6 4 Noroeste 9 Noroeste 0 -- -- 73
2018-12-06 17:00:00 13.2 8 Noroeste 13 Norte 0 -- -- 65
2018-12-06 16:00:00 13.9 8 Noroeste 15 Norte 0 -- -- 67
2018-12-06 15:00:00 13.9 9 Norte 14 Norte 0 -- -- 72
2018-12-06 14:00:00 13.5 9 Noroeste 16 Noroeste 0 -- -- 76
2018-12-06 13:00:00 13.1 9 Noroeste 15 Noroeste 0 -- -- 80
2018-12-06 12:00:00 12.5 5 Noroeste 9 Norte 0 -- -- 85
2018-12-06 11:00:00 10.9 2 Sur 9 Sur 0 -- -- 97
2018-12-06 10:00:00 7.4 5 Sur 8 Sur 0 -- -- 99
2018-12-06 09:00:00 6.6 0 Calma 6 Oeste 0 -- -- 98
2018-12-06 08:00:00 5.3 0 Calma 4 Nordeste 0 -- -- 99
2018-12-06 07:00:00 3.1 0 Calma 4 Este 0 -- -- 97
2018-12-06 06:00:00 3.5 0 Calma 4 Sudeste 0 -- -- 98
2018-12-06 05:00:00 3.5 2 Sudeste 3 Sudeste 0 -- -- 98
2018-12-06 04:00:00 4.8 0 Calma 5 Sudeste 0 -- -- 97
2018-12-06 03:00:00 5.3 4 Sur 8 Sur 0 -- -- 97
2018-12-06 02:00:00 5.3 6 Sur 9 Sur 0 -- -- 98
2018-12-06 01:00:00 5 5 Sur 11 Sur 0 -- -- 97
2018-12-06 00:00:00 4.3 4 Sur 8 Sudeste 0 -- -- 97
2018-12-05 23:00:00 4.2 4 Sudeste 6 Sur 0 -- -- 96
2018-12-05 22:00:00 4.1 2 Sur 4 Sur 0 -- -- 96
2018-12-05 21:00:00 4.2 3 Sudeste 8 Sudeste 0 -- -- 95
2018-12-05 20:00:00 5.6 0 Calma 10 Noroeste 0 -- -- 94
2018-12-05 19:00:00 7.4 4 Noroeste 12 Norte 0 -- -- 89
2018-12-05 18:00:00 10.8 8 Noroeste 15 Noroeste 0 -- -- 79
2018-12-05 17:00:00 15.4 4 Oeste 13 Sur 0 -- -- 64
2018-12-05 16:00:00 14.9 6 Sur 12 Noroeste 0 -- -- 65
2018-12-05 15:00:00 13.7 9 Noroeste 17 Noroeste 0 -- -- 71
2018-12-05 14:00:00 12.7 9 Noroeste 14 Noroeste 0 -- -- 71
2018-12-05 13:00:00 12 9 Noroeste 17 Noroeste 0 -- -- 79
2018-12-05 12:00:00 11.9 5 Sur 10 Sudoeste 0 -- -- 78
2018-12-05 11:00:00 8.5 4 Noroeste 9 Noroeste 0 -- -- 93
2018-12-05 10:00:00 5.6 2 Norte 4 Noroeste 0 -- -- 98
2018-12-05 09:00:00 2.4 0 Calma 4 Sudeste 0 -- -- 96
2018-12-05 08:00:00 2.3 0 Calma 3 Este 0 -- -- 96
2018-12-05 07:00:00 2.7 0 Calma 4 Norte 0 -- -- 94
2018-12-05 06:00:00 4.4 0 Calma 15 Sur 0 -- -- 91
2018-12-05 05:00:00 5.2 9 Sur 13 Sur 0 -- -- 94
2018-12-05 04:00:00 5.6 6 Sur 12 Sudeste 0 -- -- 92
2018-12-05 03:00:00 6 6 Sudeste 12 Sudeste 0 -- -- 94
2018-12-05 02:00:00 5.8 6 Sudeste 9 Sudeste 0 -- -- 96
2018-12-05 01:00:00 6 0 Calma 9 Sudeste 0 -- -- 95
2018-12-05 00:00:00 6.2 8 Sudeste 10 Este 0 -- -- 94
2018-12-04 23:00:00 5 3 Este 4 Este 0 -- -- 90
2018-12-04 22:00:00 6.1 0 Calma 9 Sur 0 -- -- 84
2018-12-04 21:00:00 7.9 8 Sur 10 Sur 0 -- -- 81
2018-12-04 20:00:00 8.7 4 Sur 8 Sur 0 -- -- 77
2018-12-04 19:00:00 10.3 5 Sur 9 Sudoeste 0 -- -- 70
2018-12-04 18:00:00 13.8 7 Sur 12 Sur 0 -- -- 60
2018-12-04 17:00:00 16.5 5 Sur 13 Sur 0 -- -- 57
2018-12-04 16:00:00 16.5 8 Sur 12 Sur 0 -- -- 63
2018-12-04 15:00:00 14.1 6 Sudeste 12 Este 0 -- -- 76
2018-12-04 14:00:00 11 7 Este 13 Este 0 -- -- 97
2018-12-04 13:00:00 9.3 7 Este 13 Sudeste 0 -- -- 99
2018-12-04 12:00:00 8.1 6 Este 14 Sudeste 0 -- -- 99
2018-12-04 11:00:00 6.9 9 Sudeste 16 Sudeste 0 -- -- 99
2018-12-04 10:00:00 5.8 7 Este 14 Sudeste 0 -- -- 99
2018-12-04 09:00:00 5.4 8 Este 17 Este 0 -- -- 99
2018-12-04 08:00:00 5.5 9 Este 17 Este 0 -- -- 99
2018-12-04 07:00:00 5.5 11 Este 17 Este 0 -- -- 99
2018-12-04 06:00:00 4.8 8 Este 14 Este 0 -- -- 98
2018-12-04 05:00:00 4.9 8 Este 11 Este 0 -- -- 98
2018-12-04 04:00:00 5.7 4 Sudeste 6 Sudeste 0 -- -- 97
2018-12-04 03:00:00 7.1 5 Sudeste 10 Este 0 -- -- 97
2018-12-04 02:00:00 6.7 0 Calma 9 Este 0 -- -- 97
2018-12-04 01:00:00 8.1 8 Este 14 Este 0 -- -- 97
2018-12-04 00:00:00 8.5 4 Este 6 Este 0 -- -- 97
2018-12-03 23:00:00 8.6 0 Calma 10 Este 0 -- -- 95
2018-12-03 22:00:00 9.6 5 Este 10 Este 0 -- -- 96
2018-12-03 21:00:00 9.9 6 Este 11 Nordeste 0 -- -- 95
2018-12-03 20:00:00 9.8 4 Este 10 Este 0 -- -- 92
2018-12-03 19:00:00 10.6 7 Este 9 Nordeste 0 -- -- 91
2018-12-03 18:00:00 12.3 5 Nordeste 7 Nordeste 0 -- -- 85
2018-12-03 17:00:00 13.4 3 Norte 9 Norte 0 -- -- 82
2018-12-03 16:00:00 13.9 5 Norte 9 Oeste 0 -- -- 80
2018-12-03 15:00:00 12.8 6 Sudoeste 13 Oeste 0 -- -- 83
2018-12-03 14:00:00 10.6 9 Sur 22 Sur 0 -- -- 88
2018-12-03 13:00:00 11 8 Sur 14 Sudoeste 0 -- -- 84
2018-12-03 12:00:00 11.1 8 Sudoeste 14 Sudoeste 0 -- -- 86
2018-12-03 11:00:00 7.7 9 Sur 16 Sur 0 -- -- 98
2018-12-03 10:00:00 6.1 3 Noroeste 8 Oeste 0 -- -- 98
2018-12-03 09:00:00 6.2 3 Sudoeste 8 Sur 0 -- -- 97
2018-12-03 08:00:00 6.9 4 Sudoeste 12 Sudoeste 0 -- -- 97
2018-12-03 07:00:00 7.1 6 Sudoeste 11 Oeste 0 -- -- 96
2018-12-03 06:00:00 7 5 Sur 10 Sudoeste 0 -- -- 95
2018-12-03 05:00:00 6.8 6 Sur 13 Sur 0 -- -- 96
2018-12-03 04:00:00 6.4 9 Sur 15 Sur 0 -- -- 95
2018-12-03 03:00:00 6.8 8 Sur 14 Sur 0 -- -- 94
2018-12-03 02:00:00 7 8 Sur 13 Sur 0 -- -- 94
2018-12-03 01:00:00 7.3 7 Sur 12 Sudoeste 0 -- -- 93
2018-12-03 00:00:00 7.7 6 Sudoeste 13 Oeste 0 -- -- 93
2018-12-02 23:00:00 7.4 9 Oeste 15 Oeste 0 -- -- 90
2018-12-02 22:00:00 7.9 9 Oeste 16 Oeste 0 -- -- 91
2018-12-02 21:00:00 8.2 9 Oeste 19 Oeste 0 -- -- 88
2018-12-02 20:00:00 8.5 10 Oeste 15 Oeste 0 -- -- 87
2018-12-02 19:00:00 8.8 10 Sudoeste 18 Sudoeste 0 -- -- 86
2018-12-02 18:00:00 9.8 12 Oeste 26 Oeste 0 -- -- 81
2018-12-02 17:00:00 11.6 17 Oeste 28 Oeste 0 -- -- 73
2018-12-02 16:00:00 12.1 13 Oeste 31 Oeste 0 -- -- 72
2018-12-02 15:00:00 12.9 18 Oeste 32 Oeste 0 -- -- 70
2018-12-02 14:00:00 11.8 10 Sudoeste 18 Oeste 0 -- -- 73
2018-12-02 13:00:00 10.8 12 Oeste 20 Oeste 0 -- -- 79
2018-12-02 12:00:00 9.6 8 Sudoeste 14 Oeste 0 -- -- 85
2018-12-02 11:00:00 8.3 5 Sudoeste 12 Sudoeste 0 -- -- 91
2018-12-02 10:00:00 6 4 Sur 8 Sur 0 -- -- 97
2018-12-02 09:00:00 5.2 5 Sur 12 Sur 0 -- -- 95
2018-12-02 08:00:00 6.1 5 Sudoeste 9 Sudoeste 0 -- -- 95
2018-12-02 07:00:00 6.6 5 Sudoeste 11 Sudoeste 0 -- -- 95
2018-12-02 06:00:00 6.3 6 Sudoeste 13 Sudoeste 0 -- -- 96
2018-12-02 05:00:00 5.5 5 Sudoeste 9 Sudoeste 0 -- -- 96
2018-12-02 04:00:00 6.1 5 Sudoeste 13 Oeste 0 -- -- 96
2018-12-02 03:00:00 6.8 6 Oeste 10 Oeste 0 -- -- 96
2018-12-02 02:00:00 6.4 4 Sudoeste 11 Sur 0 -- -- 96
2018-12-02 01:00:00 6 5 Sudoeste 15 Oeste 0 -- -- 95
2018-12-02 00:00:00 6.5 7 Sudoeste 16 Oeste 0 -- -- 95
2018-12-01 23:00:00 7.4 4 Sudoeste 13 Sudoeste 0 -- -- 92
2018-12-01 22:00:00 7.1 10 Sudoeste 15 Oeste 0 -- -- 92
2018-12-01 21:00:00 7.6 8 Sudoeste 14 Sudoeste 0 -- -- 91
2018-12-01 20:00:00 7.9 9 Oeste 16 Oeste 0 -- -- 90
2018-12-01 19:00:00 8.6 6 Oeste 15 Oeste 0 -- -- 87
2018-12-01 18:00:00 8.9 5 Oeste 22 Oeste 0 -- -- 84
2018-12-01 17:00:00 10.1 8 Oeste 24 Oeste 0 -- -- 79
2018-12-01 16:00:00 10.3 15 Oeste 29 Oeste 0 -- -- 76
2018-12-01 15:00:00 10.3 14 Oeste 24 Oeste 0 -- -- 77
2018-12-01 14:00:00 10.4 12 Oeste 24 Oeste 0 -- -- 76
2018-12-01 13:00:00 9.5 13 Oeste 21 Oeste 0 -- -- 73
2018-12-01 12:00:00 8.3 13 Oeste 23 Oeste 0 -- -- 78
2018-12-01 11:00:00 7.4 12 Sudoeste 18 Oeste 0 -- -- 81
2018-12-01 10:00:00 5.3 8 Sudoeste 15 Sudoeste 0 -- -- 87
2018-12-01 09:00:00 3.1 8 Sur 15 Sur 0 -- -- 92
2018-12-01 08:00:00 3.3 8 Sudoeste 12 Sudoeste 0 -- -- 94
2018-12-01 07:00:00 2.2 7 Sur 12 Sur 0 -- -- 95
2018-12-01 06:00:00 2.1 7 Sur 10 Sur 0 -- -- 95
2018-12-01 05:00:00 2.4 8 Sur 10 Sur 0 -- -- 95
2018-12-01 04:00:00 2.8 6 Sur 10 Sur 0 -- -- 95
2018-12-01 03:00:00 2.6 8 Sur 11 Sudoeste 0 -- -- 94
2018-12-01 02:00:00 3 6 Sur 13 Sur 0 -- -- 93
2018-12-01 01:00:00 3.1 7 Sur 13 Sur 0 -- -- 93
2018-12-01 00:00:00 2.8 9 Sur 11 Sur 0 -- -- 94
2018-11-30 23:00:00 2.2 5 Sur 8 Sur 0 -- -- 94
2018-11-30 22:00:00 2.5 3 Sur 6 Sudeste 0 -- -- 94
2018-11-30 21:00:00 2 3 Sudeste 4 Sudeste 0 -- -- 93
2018-11-30 20:00:00 2.5 2 Sur 6 Este 0 -- -- 93
2018-11-30 19:00:00 3.1 0 Calma 2 Este 0 -- -- 89
2018-11-30 18:00:00 6.3 0 Calma 5 Noroeste 0 -- -- 83
2018-11-30 17:00:00 7.8 2 Noroeste 13 Noroeste 0 -- -- 78
2018-11-30 16:00:00 9.2 6 Noroeste 18 Noroeste 0 -- -- 73
2018-11-30 15:00:00 7.9 7 Noroeste 20 Noroeste 0 -- -- 80
2018-11-30 14:00:00 8.1 7 Noroeste 14 Oeste 0 -- -- 83
2018-11-30 13:00:00 7.7 9 Oeste 16 Oeste 0 -- -- 87
2018-11-30 12:00:00 7 6 Sudoeste 11 Oeste 0 -- -- 93
2018-11-30 11:00:00 6.1 6 Sur 10 Sudoeste 0 -- -- 97
2018-11-30 10:00:00 5.6 5 Sudoeste 10 Sudoeste 0 -- -- 97
2018-11-30 09:00:00 5.4 4 Sudoeste 9 Sudoeste 0 -- -- 98
2018-11-30 08:00:00 5.4 4 Sudoeste 9 Sudoeste 0 -- -- 98
2018-11-30 07:00:00 5.6 3 Oeste 9 Noroeste 0 -- -- 98
2018-11-30 06:00:00 5.5 5 Sudoeste 12 Oeste 0 -- -- 98
2018-11-30 05:00:00 5.8 4 Sudoeste 11 Sudoeste 0 -- -- 98
2018-11-30 04:00:00 6.1 0 Calma 10 Oeste 0 -- -- 97
2018-11-30 03:00:00 6.2 2 Oeste 9 Oeste 0 -- -- 97
2018-11-30 02:00:00 6.6 5 Oeste 8 Oeste 0 -- -- 97
2018-11-30 01:00:00 6.8 5 Oeste 15 Oeste 0 -- -- 97
2018-11-30 00:00:00 6.8 6 Oeste 15 Sudoeste 0 -- -- 97
2018-11-29 23:00:00 7 8 Oeste 14 Oeste 0 -- -- 96
2018-11-29 22:00:00 6.9 5 Sudoeste 10 Sudoeste 0 -- -- 96
2018-11-29 21:00:00 6.6 8 Sudoeste 17 Sudoeste 0 -- -- 95
2018-11-29 20:00:00 6.5 11 Sudoeste 21 Sudoeste 0 -- -- 94
2018-11-29 19:00:00 6.1 10 Sur 26 Sur 0 -- -- 94
2018-11-29 18:00:00 6.3 18 Sur 29 Sur 2 -- -- 95
2018-11-29 17:00:00 6.4 12 Sudoeste 22 Sudoeste 3.8 -- -- 95
2018-11-29 16:00:00 6.3 12 Sur 25 Sudoeste 3.8 -- -- 92
2018-11-29 15:00:00 6.5 8 Sur 32 Sur 4 -- -- 89
2018-11-29 14:00:00 7.2 14 Sur 27 Sur 1.8 -- -- 82
2018-11-29 13:00:00 7.4 18 Sur 38 Sudoeste 1.4 -- -- 82
2018-11-29 12:00:00 10.3 27 Sudoeste 42 Sudoeste 0 -- -- 52
2018-11-29 11:00:00 9 24 Sur 42 Sur 0 -- -- 62
2018-11-29 10:00:00 8.5 23 Sur 39 Sur 0 -- -- 68
2018-11-29 09:00:00 6.1 19 Sur 32 Sur 0 -- -- 74
2018-11-29 08:00:00 5.6 18 Sur 35 Sur 0 -- -- 78
2018-11-29 07:00:00 5.3 15 Sur 26 Sur 0 -- -- 77
2018-11-29 06:00:00 5.1 13 Sur 23 Sur 0 -- -- 76
2018-11-29 05:00:00 3.1 2 Sur 18 Sur 0 -- -- 77
2018-11-29 04:00:00 4.3 8 Sur 14 Sur 0 -- -- 72
2018-11-29 03:00:00 3.9 6 Sur 14 Sur 0 -- -- 77
2018-11-29 02:00:00 3.7 0 Calma 15 Sudoeste 0 -- -- 77
2018-11-29 01:00:00 5.4 7 Sudoeste 18 Sur 0 -- -- 70
2018-11-29 00:00:00 5.1 8 Sur 16 Sur 0 -- -- 63
2018-11-28 23:00:00 5.5 13 Sur 21 Sur 0 -- -- 59
2018-11-28 22:00:00 6.3 15 Sur 22 Sudoeste 0 -- -- 60
2018-11-28 21:00:00 7.1 13 Sudoeste 24 Sur 0 -- -- 58
2018-11-28 14:00:00 -- -- -- -- -- -- -- -- --
2018-11-28 13:00:00 -- -- -- -- -- -- -- -- --
2018-11-28 12:00:00 -- -- -- -- -- -- -- -- --
2018-11-28 11:00:00 -- -- -- -- -- -- -- -- --
2018-11-28 10:00:00 4.8 10 Sudoeste 15 Sudoeste 0 -- -- 86
2018-11-28 09:00:00 2.5 5 Sur 12 Sur 0 -- -- 93
2018-11-28 08:00:00 1.8 8 Sur 11 Sur 0 -- -- 94
2018-11-28 07:00:00 1.9 5 Sur 12 Sur 0 -- -- 92
2018-11-28 06:00:00 2.9 8 Sur 13 Sur 0 -- -- 94
2018-11-28 05:00:00 3.7 8 Sudoeste 11 Sudoeste 0 -- -- 92
2018-11-28 04:00:00 3.3 5 Sur 10 Sudoeste 0 -- -- 89
2018-11-28 03:00:00 4.5 6 Sur 13 Sur 0 -- -- 88
2018-11-28 02:00:00 4 9 Sur 14 Sur 0 -- -- 87
2018-11-28 01:00:00 3.8 6 Sur 9 Sur 0 -- -- 90
2018-11-28 00:00:00 3.8 5 Sudeste 10 Sur 0 -- -- 90
2018-11-27 23:00:00 5 7 Sur 13 Sudoeste 0 -- -- 86
2018-11-27 22:00:00 5.7 8 Sur 10 Sur 0 -- -- 84
2018-11-27 21:00:00 5.9 6 Sur 8 Sur 0 -- -- 86
2018-11-27 20:00:00 4.7 0 Calma 2 Sur 0 -- -- 87
2018-11-27 19:00:00 6.5 0 Calma 7 Oeste 0 -- -- 82
2018-11-27 18:00:00 8.7 0 Calma 8 Oeste 0 -- -- 73
2018-11-27 17:00:00 11.8 8 Oeste 21 Oeste 0 -- -- 64
2018-11-27 16:00:00 12.7 9 Oeste 17 Oeste 0 -- -- 54
2018-11-27 15:00:00 11.9 10 Sudoeste 16 Sudoeste 0 -- -- 59
2018-11-27 14:00:00 10.7 9 Sudoeste 17 Sudoeste 0 -- -- 63
2018-11-27 13:00:00 9.4 10 Sur 17 Sur 0 -- -- 71
2018-11-27 12:00:00 8.1 9 Sudoeste 19 Sudoeste 0 -- -- 76
2018-11-27 11:00:00 7.2 9 Sudoeste 15 Sudoeste 0 -- -- 84
2018-11-27 10:00:00 3.9 8 Sur 12 Sur 0 -- -- 96
2018-11-27 09:00:00 1.6 4 Sudeste 7 Noroeste 0 -- -- 94
2018-11-27 08:00:00 2.6 4 Sur 13 Sur 0 -- -- 94
2018-11-27 07:00:00 2.7 6 Sur 14 Sur 0 -- -- 95
2018-11-27 06:00:00 2.5 7 Sur 12 Sur 0 -- -- 95
2018-11-27 05:00:00 2.6 5 Sur 9 Sur 0 -- -- 94
2018-11-27 04:00:00 2.3 5 Sur 9 Sur 0 -- -- 94
2018-11-27 03:00:00 2.3 4 Sur 10 Sur 0 -- -- 92
2018-11-27 02:00:00 2.8 8 Sur 10 Sur 0 -- -- 91
2018-11-27 01:00:00 3 4 Sur 11 Sur 0 -- -- 91
2018-11-27 00:00:00 2.2 5 Sur 8 Sur 0 -- -- 93
2018-11-26 23:00:00 1.8 2 Sur 7 Sur 0 -- -- 91
2018-11-26 22:00:00 1.6 0 Calma 4 Noroeste 0 -- -- 92
2018-11-26 21:00:00 3.1 0 Calma 7 Norte 0 -- -- 85
2018-11-26 20:00:00 4.1 2 Este 9 Norte 0 -- -- 83
2018-11-26 19:00:00 4.5 2 Este 4 Nordeste 0 -- -- 84
2018-11-26 18:00:00 7.5 6 Noroeste 21 Noroeste 0 -- -- 72
2018-11-26 17:00:00 9.1 14 Noroeste 26 Noroeste 0 -- -- 67
2018-11-26 16:00:00 10.2 15 Noroeste 28 Noroeste 0 -- -- 66
2018-11-26 15:00:00 9.8 20 Noroeste 35 Oeste 0 -- -- 64
2018-11-26 14:00:00 9.5 18 Noroeste 39 Noroeste 0 -- -- 67
2018-11-26 13:00:00 9.1 23 Noroeste 47 Noroeste 0 -- -- 69
2018-11-26 12:00:00 8.6 30 Noroeste 46 Noroeste 0 -- -- 70
2018-11-26 11:00:00 8 19 Noroeste 35 Oeste 0 -- -- 85
2018-11-26 10:00:00 7 22 Noroeste 35 Noroeste 0.4 -- -- 91
2018-11-26 09:00:00 6.4 19 Noroeste 41 Oeste 0 -- -- 91
2018-11-26 08:00:00 6.4 26 Oeste 50 Oeste 0 -- -- 88
2018-11-26 07:00:00 6.6 33 Oeste 53 Oeste 0 -- -- 84
2018-11-26 06:00:00 6.5 23 Oeste 38 Oeste 0 -- -- 81
2018-11-26 05:00:00 6.1 22 Oeste 41 Oeste 0 -- -- 81
2018-11-26 04:00:00 5.7 17 Oeste 39 Oeste 0 -- -- 84
2018-11-26 03:00:00 5.2 12 Noroeste 42 Oeste 0 -- -- 83
2018-11-26 02:00:00 5.8 21 Noroeste 49 Noroeste 0 -- -- 80
2018-11-26 01:00:00 6.3 27 Noroeste 55 Oeste 0 -- -- 81
2018-11-26 00:00:00 7.3 33 Oeste 58 Oeste 0 -- -- 82
2018-11-25 23:00:00 8.8 32 Oeste 52 Oeste 1.2 -- -- 95
2018-11-25 22:00:00 8.6 15 Sudoeste 28 Sudoeste 1.4 -- -- 97
2018-11-25 21:00:00 8.3 18 Sur 35 Sur 1 -- -- 96
2018-11-25 20:00:00 8.2 10 Sur 20 Sur 2.4 -- -- 96
2018-11-25 19:00:00 8.5 8 Sur 19 Sudoeste 3 -- -- 95
2018-11-25 18:00:00 9 10 Sudoeste 20 Sudoeste 1 -- -- 90
2018-11-25 17:00:00 9.8 7 Oeste 18 Noroeste 0 -- -- 83
2018-11-25 16:00:00 10.3 13 Oeste 25 Oeste 0 -- -- 79
2018-11-25 15:00:00 10.5 14 Oeste 23 Oeste 0 -- -- 80
2018-11-25 14:00:00 10.4 16 Oeste 30 Oeste 0 -- -- 80
2018-11-25 13:00:00 9.9 18 Oeste 31 Oeste 0 -- -- 84
2018-11-25 12:00:00 9.6 15 Oeste 27 Oeste 0 -- -- 93
2018-11-25 11:00:00 9.2 12 Oeste 19 Oeste 0 -- -- 97
2018-11-25 10:00:00 8.9 10 Oeste 24 Oeste 0 -- -- 98
2018-11-25 09:00:00 9 9 Noroeste 26 Oeste 0.2 -- -- 97
2018-11-25 08:00:00 9.9 15 Oeste 24 Oeste 0.2 -- -- 97
2018-11-25 07:00:00 10 14 Oeste 23 Oeste 1.2 -- -- 97
2018-11-25 06:00:00 10 9 Oeste 34 Sudoeste 2.6 -- -- 97
2018-11-25 05:00:00 9.9 15 Sudoeste 25 Sudoeste 1.4 -- -- 97
2018-11-25 04:00:00 9.5 15 Sudoeste 32 Sudoeste 0.8 -- -- 97
2018-11-25 03:00:00 8.8 14 Sur 26 Sudoeste 0 -- -- 96
2018-11-25 02:00:00 8.3 14 Sudoeste 30 Sudoeste 0 -- -- 96
2018-11-25 01:00:00 7.9 18 Sur 31 Sur 0 -- -- 96
2018-11-25 00:00:00 7.7 20 Sur 41 Sur 1.6 -- -- 96
2018-11-24 23:00:00 7.9 19 Sudoeste 39 Sur 1.6 -- -- 94
2018-11-24 22:00:00 7.8 23 Sur 45 Sur 0.2 -- -- 92
2018-11-24 21:00:00 7.5 26 Sur 48 Sur 0.4 -- -- 90
2018-11-24 20:00:00 7.5 22 Sur 45 Sur 0 -- -- 87
2018-11-24 19:00:00 7.6 19 Sur 39 Sur 0 -- -- 86
2018-11-24 18:00:00 8 21 Sur 41 Sur 0.2 -- -- 82
2018-11-24 17:00:00 8.8 27 Sur 46 Sudoeste 0 -- -- 74
2018-11-24 16:00:00 9.5 27 Sur 45 Sur 0 -- -- 74
2018-11-24 15:00:00 9.7 24 Sur 43 Sur 0 -- -- 72
2018-11-24 14:00:00 9.6 25 Sudoeste 45 Sur 0 -- -- 72
2018-11-24 13:00:00 9 23 Sur 41 Sur 0 -- -- 81
2018-11-24 12:00:00 8.2 19 Sur 33 Sur 0 -- -- 85
2018-11-24 11:00:00 7.7 15 Sur 29 Sur 0 -- -- 88
2018-11-24 10:00:00 6.9 14 Sur 28 Sur 0 -- -- 91
2018-11-24 09:00:00 6.2 13 Sur 23 Sur 0 -- -- 92
2018-11-24 08:00:00 6.2 12 Sur 22 Sur 0 -- -- 91
2018-11-24 07:00:00 6.3 11 Sur 22 Sur 0 -- -- 91
2018-11-24 06:00:00 6.3 12 Sudoeste 21 Sudoeste 0 -- -- 91
2018-11-24 05:00:00 5.9 9 Sur 22 Sudoeste 0 -- -- 92
2018-11-24 04:00:00 5.8 9 Sur 21 Sur 0 -- -- 92
2018-11-24 03:00:00 5.7 10 Sudoeste 23 Sudoeste 0 -- -- 92
2018-11-24 02:00:00 5.9 12 Sudoeste 23 Sudoeste 0 -- -- 92
2018-11-24 01:00:00 5.8 13 Sudoeste 22 Sudoeste 0 -- -- 93
2018-11-24 00:00:00 5.8 11 Sudoeste 24 Sudoeste 0 -- -- 92
2018-11-23 23:00:00 6 10 Sudoeste 21 Sur 0 -- -- 93
2018-11-23 22:00:00 6.3 11 Sudoeste 18 Sudoeste 0 -- -- 94
2018-11-23 21:00:00 6 8 Sur 13 Sudoeste 0.2 -- -- 95
2018-11-23 20:00:00 6 6 Sur 11 Sur 0.2 -- -- 95
2018-11-23 19:00:00 6.2 6 Sudoeste 18 Sudoeste 0.4 -- -- 93
2018-11-23 18:00:00 6.6 8 Oeste 18 Oeste 0.8 -- -- 90
2018-11-23 17:00:00 7.8 9 Sudoeste 24 Sudoeste 0 -- -- 80
2018-11-23 16:00:00 8.5 13 Sudoeste 25 Sudoeste 0 -- -- 73
2018-11-23 15:00:00 8.2 14 Sudoeste 27 Sudoeste 0 -- -- 73
2018-11-23 14:00:00 8.3 14 Oeste 23 Oeste 0 -- -- 74
2018-11-23 13:00:00 8 15 Sudoeste 24 Oeste 0 -- -- 75
2018-11-23 12:00:00 7.3 10 Sudoeste 20 Sudoeste 0 -- -- 86
2018-11-23 11:00:00 6.6 12 Sudoeste 19 Sudoeste 0 -- -- 89
2018-11-23 10:00:00 5 9 Sudoeste 14 Sur 0 -- -- 96
2018-11-23 09:00:00 3.6 5 Sur 16 Sudoeste 0 -- -- 95
2018-11-23 08:00:00 3.6 6 Sudoeste 12 Sudoeste 0 -- -- 96
2018-11-23 07:00:00 3.8 6 Sudoeste 9 Sudoeste 0 -- -- 97
2018-11-23 06:00:00 4.3 4 Sudoeste 13 Sudoeste 0 -- -- 96
2018-11-23 05:00:00 4.9 6 Sudoeste 16 Sudoeste 0.2 -- -- 96
2018-11-23 04:00:00 5 4 Sur 14 Sudoeste 0 -- -- 96
2018-11-23 03:00:00 5.3 6 Sur 12 Sur 0.2 -- -- 96
2018-11-23 02:00:00 5.1 4 Sur 8 Sudoeste 0 -- -- 97
2018-11-23 01:00:00 5.2 3 Sur 8 Sur 0 -- -- 95
2018-11-23 00:00:00 5.5 5 Sur 9 Sur 0 -- -- 95
2018-11-22 23:00:00 5.7 0 Calma 7 Sudeste 0 -- -- 93
2018-11-22 22:00:00 6.1 3 Sur 9 Sur 0.6 -- -- 93
2018-11-22 21:00:00 6.4 5 Sur 17 Sur 0 -- -- 89
2018-11-22 20:00:00 6.9 9 Sur 21 Sur 0 -- -- 86
2018-11-22 19:00:00 7.2 8 Sur 24 Sur 0 -- -- 85
2018-11-22 18:00:00 7.9 9 Sur 21 Sudoeste 0 -- -- 84
2018-11-22 17:00:00 8.7 13 Sur 25 Sur 0 -- -- 80
2018-11-22 16:00:00 9.8 18 Sur 32 Sur 0 -- -- 77
2018-11-22 15:00:00 9.2 17 Sur 31 Sudoeste 0 -- -- 82
2018-11-22 14:00:00 9 17 Sur 32 Sur 0 -- -- 87
2018-11-22 13:00:00 8.2 14 Sur 27 Sur 0.2 -- -- 90
2018-11-22 12:00:00 7.4 15 Sur 24 Sur 0 -- -- 90
2018-11-22 11:00:00 6.4 12 Sur 26 Sur 0 -- -- 93
2018-11-22 10:00:00 6.2 12 Sur 22 Sur 0 -- -- 93
2018-11-22 09:00:00 5.6 12 Sur 22 Sur 0 -- -- 96
2018-11-22 08:00:00 5.4 8 Sur 15 Sur 0 -- -- 95
2018-11-22 07:00:00 5.6 7 Sudoeste 17 Sur 0 -- -- 95
2018-11-22 06:00:00 5.8 10 Sur 20 Sur 0 -- -- 95
2018-11-22 05:00:00 5.7 8 Sur 22 Sur 0.6 -- -- 95
2018-11-22 04:00:00 5.8 6 Sur 23 Sur 0.2 -- -- 94
2018-11-22 03:00:00 5.9 10 Sur 20 Sur 0.2 -- -- 93
2018-11-22 02:00:00 5.8 11 Sur 23 Sur 0 -- -- 92
2018-11-22 01:00:00 5 11 Sur 21 Sur 0 -- -- 94
2018-11-22 00:00:00 5.2 11 Sur 27 Sudoeste 0 -- -- 92
2018-11-21 23:00:00 5.9 15 Sur 25 Sudoeste 0 -- -- 90
2018-11-21 22:00:00 5.5 13 Sur 26 Sudoeste 0 -- -- 90
2018-11-21 21:00:00 5.1 14 Sur 25 Sudoeste 0 -- -- 89
2018-11-21 20:00:00 5.2 12 Sudoeste 21 Sudoeste 0 -- -- 89
2018-11-21 19:00:00 5.5 11 Sudoeste 30 Sudoeste 0 -- -- 88
2018-11-21 18:00:00 6.9 16 Sudoeste 32 Sudoeste 0 -- -- 80
2018-11-21 17:00:00 7 10 Oeste 35 Sudoeste 0 -- -- 85
2018-11-21 16:00:00 8.4 19 Sudoeste 40 Sudoeste 0.2 -- -- 83
2018-11-21 15:00:00 9.1 19 Sudoeste 30 Sudoeste 0 -- -- 77
2018-11-21 14:00:00 9 23 Sudoeste 41 Sudoeste 0 -- -- 77
2018-11-21 13:00:00 8.2 16 Sudoeste 29 Sur 0.6 -- -- 87
2018-11-21 12:00:00 5.8 11 Sudoeste 32 Sudoeste 1.8 -- -- 93
2018-11-21 11:00:00 7.6 19 Sudoeste 37 Sudoeste 0 -- -- 87
2018-11-21 10:00:00 5.9 9 Sur 22 Sudoeste 0 -- -- 93
2018-11-21 09:00:00 5.5 10 Sudoeste 22 Sur 0 -- -- 94
2018-11-21 08:00:00 5.9 9 Sudoeste 19 Sudoeste 0 -- -- 94
2018-11-21 07:00:00 6.3 9 Sudoeste 21 Sudoeste 0 -- -- 93
2018-11-21 06:00:00 6 9 Sudoeste 27 Sudoeste 0 -- -- 93
2018-11-21 05:00:00 6.2 17 Sudoeste 35 Sur 0 -- -- 94
2018-11-21 04:00:00 6.6 20 Sudoeste 35 Sudoeste 0.2 -- -- 95
2018-11-21 03:00:00 6.4 15 Sudoeste 24 Sudoeste 0.2 -- -- 95
2018-11-21 02:00:00 7 12 Sudoeste 27 Sudoeste 0.4 -- -- 94
2018-11-21 01:00:00 7.1 13 Sudoeste 28 Sudoeste 0 -- -- 91
2018-11-21 00:00:00 7.2 17 Sudoeste 27 Sudoeste 0 -- -- 94
2018-11-20 23:00:00 7.3 14 Sudoeste 24 Sudoeste 0.2 -- -- 94
2018-11-20 22:00:00 7.1 12 Sudoeste 22 Sudoeste 0.2 -- -- 94
2018-11-20 21:00:00 7.5 8 Sudoeste 18 Sudoeste 0 -- -- 91
2018-11-20 20:00:00 7.6 12 Sudoeste 22 Sudoeste 0 -- -- 93
2018-11-20 19:00:00 7.8 13 Sudoeste 27 Oeste 0 -- -- 91
2018-11-20 18:00:00 8.1 14 Oeste 22 Oeste 0 -- -- 94
2018-11-20 17:00:00 7.8 11 Sudoeste 19 Sudoeste 0.8 -- -- 95
2018-11-20 16:00:00 7.9 13 Oeste 27 Sudoeste 0 -- -- 92
2018-11-20 15:00:00 8 14 Sudoeste 26 Sudoeste 0.2 -- -- 89
2018-11-20 14:00:00 7.8 15 Oeste 30 Sudoeste 0.2 -- -- 92
2018-11-20 13:00:00 8.1 14 Sudoeste 27 Sudoeste 0 -- -- 90
2018-11-20 12:00:00 7.3 12 Sudoeste 26 Oeste 0 -- -- 93
2018-11-20 11:00:00 7.2 13 Sudoeste 24 Sudoeste 0.4 -- -- 93
2018-11-20 10:00:00 7.4 16 Oeste 29 Oeste 0 -- -- 93
2018-11-20 09:00:00 7.4 18 Sudoeste 27 Sudoeste 0 -- -- 95
2018-11-20 08:00:00 7.6 10 Oeste 18 Oeste 0 -- -- 96
2018-11-20 07:00:00 8.1 9 Sudoeste 15 Sudoeste 0 -- -- 96
2018-11-20 06:00:00 8.1 6 Sudoeste 24 Oeste 2 -- -- 95
2018-11-20 05:00:00 8.6 12 Sudoeste 19 Sudoeste 1.8 -- -- 96
2018-11-20 04:00:00 8.6 13 Sudoeste 20 Sur 0 -- -- 96
2018-11-20 03:00:00 8.7 6 Sur 14 Sudoeste 0 -- -- 96
2018-11-20 02:00:00 8.7 5 Sudoeste 10 Sudoeste 0 -- -- 96
2018-11-20 01:00:00 8.8 4 Sudoeste 14 Oeste 0 -- -- 95
2018-11-20 00:00:00 8.8 9 Sudoeste 19 Oeste 0 -- -- 96
2018-11-19 23:00:00 9 7 Sudoeste 13 Sudoeste 0 -- -- 96
2018-11-19 22:00:00 9.1 6 Sur 10 Sudoeste 0 -- -- 96
2018-11-19 21:00:00 9.1 5 Sur 8 Sur 0 -- -- 94
2018-11-19 20:00:00 9.4 4 Sudoeste 7 Sudoeste 0 -- -- 91
2018-11-19 19:00:00 9.9 2 Sudoeste 4 Oeste 0 -- -- 89
2018-11-19 18:00:00 10.4 2 Oeste 10 Oeste 0 -- -- 86
2018-11-19 17:00:00 10.7 7 Oeste 10 Oeste 0 -- -- 85
2018-11-19 16:00:00 11.2 4 Noroeste 7 Noroeste 0 -- -- 81
2018-11-19 15:00:00 10.6 2 Nordeste 6 Oeste 0 -- -- 87
2018-11-19 14:00:00 9.9 4 Noroeste 9 Noroeste 0 -- -- 94
2018-11-19 13:00:00 8.7 3 Norte 9 Nordeste 0 -- -- 98
2018-11-19 12:00:00 7.5 6 Nordeste 11 Nordeste 0 -- -- 98
2018-11-19 11:00:00 7.3 5 Nordeste 12 Nordeste 0 -- -- 98
2018-11-19 10:00:00 7.7 2 Sudeste 9 Sudeste 0 -- -- 99
2018-11-19 09:00:00 5.9 4 Este 7 Este 0 -- -- 98
2018-11-19 08:00:00 6.2 2 Este 4 Este 0 -- -- 98
2018-11-19 07:00:00 6.7 4 Sudeste 10 Sudeste 0 -- -- 97
2018-11-19 06:00:00 7.6 5 Este 9 Este 0 -- -- 98
2018-11-19 05:00:00 7.2 3 Este 6 Este 0 -- -- 98
2018-11-19 04:00:00 8 4 Este 10 Este 0 -- -- 96
2018-11-19 03:00:00 8.9 7 Este 13 Este 0 -- -- 97
2018-11-19 02:00:00 9 6 Este 12 Este 0 -- -- 97
2018-11-19 01:00:00 9 4 Nordeste 10 Este 0 -- -- 97
2018-11-19 00:00:00 8.9 4 Este 8 Nordeste 0 -- -- 97
2018-11-18 23:00:00 9 2 Nordeste 4 Nordeste 0.2 -- -- 96
2018-11-18 22:00:00 8.7 0 Calma 2 Norte 0 -- -- 95
2018-11-18 21:00:00 9 0 Calma 2 Sudoeste 0 -- -- 94
2018-11-18 20:00:00 9.3 0 Calma 8 Sudoeste 0.6 -- -- 94
2018-11-18 19:00:00 9.7 5 Sur 9 Sur 1 -- -- 94
2018-11-18 18:00:00 10.1 9 Sur 17 Sudeste 1.2 -- -- 92
2018-11-18 17:00:00 10.4 6 Sudeste 14 Sur 3.4 -- -- 93
2018-11-18 16:00:00 11.6 4 Sur 13 Este 0.8 -- -- 90
2018-11-18 15:00:00 12.2 9 Este 14 Este 0.4 -- -- 86
2018-11-18 14:00:00 12 8 Este 18 Este 0 -- -- 83
2018-11-18 13:00:00 13.1 8 Este 16 Este 0 -- -- 79
2018-11-18 12:00:00 10.7 8 Sudeste 15 Este 0 -- -- 89
2018-11-18 11:00:00 9.9 5 Este 14 Este 0 -- -- 84
2018-11-18 10:00:00 10.1 9 Este 14 Este 0 -- -- 83
2018-11-18 09:00:00 9.7 8 Sudeste 15 Este 0 -- -- 84
2018-11-18 08:00:00 9.1 4 Este 12 Este 0 -- -- 86
2018-11-18 07:00:00 9.4 7 Sudeste 12 Este 0 -- -- 85
2018-11-18 06:00:00 9.1 5 Sudeste 16 Este 0 -- -- 84
2018-11-18 05:00:00 8.6 9 Sudeste 17 Este 0 -- -- 86
2018-11-18 04:00:00 8.7 9 Este 15 Este 0 -- -- 86
2018-11-18 03:00:00 8.2 10 Este 19 Este 0 -- -- 87
2018-11-18 02:00:00 8.3 11 Este 19 Este 0 -- -- 86
2018-11-18 01:00:00 8.1 8 Este 14 Este 0 -- -- 86
2018-11-18 00:00:00 8.7 12 Este 18 Este 0 -- -- 84
2018-11-17 23:00:00 9.1 9 Este 14 Este 0 -- -- 85
2018-11-17 22:00:00 9.7 8 Este 14 Este 0 -- -- 85
2018-11-17 21:00:00 9.9 5 Este 9 Sudeste 0 -- -- 84
2018-11-17 20:00:00 11.2 5 Sudeste 14 Sudeste 0 -- -- 80
2018-11-17 19:00:00 12.1 7 Sudeste 13 Sudeste 0 -- -- 76
2018-11-17 18:00:00 13.5 4 Sudeste 17 Sudeste 0 -- -- 71
2018-11-17 17:00:00 14.8 12 Sudeste 22 Sur 0 -- -- 65
2018-11-17 16:00:00 14.6 13 Sudeste 28 Sudeste 0 -- -- 65
2018-11-17 15:00:00 15.6 17 Sudeste 29 Sudeste 0 -- -- 63
2018-11-17 14:00:00 14.9 13 Sur 29 Sur 0 -- -- 67
2018-11-17 13:00:00 15.4 18 Sur 31 Sur 0 -- -- 67
2018-11-17 12:00:00 14.9 15 Sur 27 Sur 0 -- -- 70
2018-11-17 11:00:00 13.8 9 Sur 17 Sur 0 -- -- 77
2018-11-17 10:00:00 11.3 6 Sur 11 Sur 0 -- -- 88
2018-11-17 09:00:00 7.1 4 Sur 13 Sudeste 0 -- -- 97
2018-11-17 08:00:00 6.1 8 Sudeste 13 Este 0 -- -- 95
2018-11-17 07:00:00 7.7 7 Sudeste 15 Sudeste 0 -- -- 94
2018-11-17 06:00:00 7.6 8 Sudeste 13 Sudeste 0 -- -- 96
2018-11-17 05:00:00 8 7 Sudeste 11 Este 0 -- -- 92
2018-11-17 04:00:00 8.4 6 Sudeste 15 Sudeste 0 -- -- 91
2018-11-17 03:00:00 8.3 6 Sudeste 12 Sudeste 0 -- -- 95
2018-11-17 02:00:00 7.8 10 Este 15 Este 0 -- -- 94
2018-11-17 01:00:00 8.1 9 Este 14 Este 0 -- -- 95
2018-11-17 00:00:00 8.4 8 Este 11 Este 0 -- -- 94
2018-11-16 23:00:00 8.8 6 Este 9 Este 0 -- -- 93
2018-11-16 22:00:00 9.1 5 Este 8 Este 0 -- -- 93
2018-11-16 21:00:00 10.4 0 Calma 4 Sudeste 0 -- -- 89
2018-11-16 20:00:00 11.4 4 Sudeste 6 Sudeste 0 -- -- 87
2018-11-16 19:00:00 12.1 2 Este 7 Sudeste 0 -- -- 86
2018-11-16 18:00:00 13.2 5 Sudeste 10 Este 0 -- -- 81
2018-11-16 17:00:00 13.9 7 Este 14 Este 0 -- -- 78
2018-11-16 16:00:00 14.3 9 Este 13 Este 0 -- -- 76
2018-11-16 15:00:00 14.5 3 Este 7 Nordeste 0 -- -- 74
2018-11-16 14:00:00 14.2 2 Sudoeste 7 Sur 0 -- -- 77
2018-11-16 13:00:00 13.6 3 Sudeste 10 Este 0 -- -- 79
2018-11-16 12:00:00 11.7 5 Nordeste 10 Nordeste 0 -- -- 88
2018-11-16 11:00:00 10.7 2 Norte 8 Norte 0 -- -- 93
2018-11-16 10:00:00 9.1 0 Calma 4 Norte 0 -- -- 98
2018-11-16 09:00:00 6.1 2 Sur 5 Sudoeste 0 -- -- 99
2018-11-16 08:00:00 4.6 3 Sur 5 Sudoeste 0 -- -- 97
2018-11-16 07:00:00 5.2 2 Oeste 4 Sudoeste 0.2 -- -- 96
2018-11-16 06:00:00 6.6 0 Calma 10 Este 0 -- -- 97
2018-11-16 05:00:00 7.6 4 Este 12 Este 0 -- -- 97
2018-11-16 04:00:00 7.3 0 Calma 9 Este 0 -- -- 96
2018-11-16 03:00:00 8.6 7 Sudeste 13 Sudeste 0 -- -- 97
2018-11-16 02:00:00 7.8 4 Sudeste 8 Este 0 -- -- 97
2018-11-16 01:00:00 8.5 6 Sur 8 Sur 0 -- -- 97
2018-11-16 00:00:00 8.4 4 Sur 10 Sur 0 -- -- 96
2018-11-15 23:00:00 7.6 4 Sur 12 Sur 0 -- -- 95
2018-11-15 22:00:00 8.2 2 Sur 5 Sur 0 -- -- 93
2018-11-15 21:00:00 9 0 Calma 0 Calma 0 -- -- 94
2018-11-15 20:00:00 9.2 0 Calma 2 Norte 0 -- -- 89
2018-11-15 19:00:00 12.2 0 Calma 8 Nordeste 0 -- -- 80
2018-11-15 18:00:00 14.7 4 Nordeste 9 Nordeste 0 -- -- 74
2018-11-15 17:00:00 16.3 5 Nordeste 11 Nordeste 0 -- -- 65
2018-11-15 16:00:00 16.4 6 Norte 13 Nordeste 0 -- -- 66
2018-11-15 15:00:00 15.8 4 Norte 12 Norte 0 -- -- 73
2018-11-15 14:00:00 14.4 5 Norte 10 Norte 0 -- -- 79
2018-11-15 13:00:00 12 5 Noroeste 12 Noroeste 0 -- -- 99
2018-11-15 12:00:00 9.7 6 Oeste 13 Oeste 0 -- -- 99
2018-11-15 11:00:00 10.4 4 Oeste 8 Oeste 0 -- -- 99
2018-11-15 10:00:00 9 0 Calma 17 Sudeste 0 -- -- 100
2018-11-15 09:00:00 6.9 3 Este 6 Sudeste 0 -- -- 99
2018-11-15 08:00:00 7.1 2 Este 9 Este 0 -- -- 99
2018-11-15 07:00:00 7.6 2 Este 9 Noroeste 0 -- -- 99
2018-11-15 06:00:00 7.7 3 Este 7 Este 0 -- -- 99
2018-11-15 05:00:00 8.6 3 Este 8 Este 0 -- -- 99
2018-11-15 04:00:00 8.6 0 Calma 4 Este 0 -- -- 99
2018-11-15 03:00:00 8.7 2 Este 8 Este 0 -- -- 99
2018-11-15 02:00:00 9 8 Este 19 Este 0 -- -- 99
2018-11-15 01:00:00 9.1 6 Este 13 Este 0 -- -- 99
2018-11-15 00:00:00 9.1 5 Este 13 Este 0 -- -- 98
2018-11-14 23:00:00 9 9 Este 16 Este 0 -- -- 98
2018-11-14 22:00:00 9 5 Nordeste 10 Nordeste 0 -- -- 98
2018-11-14 21:00:00 9.2 4 Nordeste 10 Nordeste 0 -- -- 97
2018-11-14 20:00:00 9.3 6 Nordeste 11 Nordeste 0 -- -- 96
2018-11-14 19:00:00 9.7 5 Noroeste 8 Noroeste 0 -- -- 91
2018-11-14 18:00:00 11.1 2 Nordeste 13 Este 0 -- -- 87
2018-11-14 17:00:00 11.3 6 Este 12 Este 0 -- -- 86
2018-11-14 16:00:00 10.2 5 Este 13 Este 0 -- -- 89
2018-11-14 15:00:00 9 5 Este 14 Este 0 -- -- 95
2018-11-14 14:00:00 8.2 7 Este 13 Este 0 -- -- 97
2018-11-14 13:00:00 7.3 7 Nordeste 13 Nordeste 0 -- -- 98
2018-11-14 12:00:00 7 6 Nordeste 11 Nordeste 0 -- -- 99
2018-11-14 11:00:00 7.1 5 Este 12 Nordeste 0 -- -- 98
2018-11-14 10:00:00 7.2 4 Nordeste 10 Nordeste 0 -- -- 99
2018-11-14 09:00:00 7.4 4 Este 9 Nordeste 0 -- -- 99
2018-11-14 08:00:00 7.3 0 Calma 6 Nordeste 0 -- -- 98
2018-11-14 07:00:00 7.6 4 Nordeste 5 Este 0 -- -- 98
2018-11-14 06:00:00 7.6 3 Norte 6 Noroeste 0 -- -- 98
2018-11-14 05:00:00 7.8 3 Este 9 Este 0 -- -- 98
2018-11-14 04:00:00 7.8 4 Este 10 Nordeste 0 -- -- 98
2018-11-14 03:00:00 8 5 Sudeste 14 Este 0 -- -- 97
2018-11-14 02:00:00 7.9 8 Este 14 Este 0 -- -- 97
2018-11-14 01:00:00 8 6 Sudeste 16 Sudeste 0 -- -- 97
2018-11-14 00:00:00 8.2 12 Este 20 Este 0 -- -- 97
2018-11-13 23:00:00 8.4 13 Este 23 Este 0 -- -- 97
2018-11-13 22:00:00 8.6 10 Este 22 Este 0 -- -- 96
2018-11-13 21:00:00 8.2 7 Nordeste 15 Este 0 -- -- 97
2018-11-13 20:00:00 7.2 5 Norte 12 Este 0 -- -- 93
2018-11-13 19:00:00 8.7 8 Este 19 Este 0 -- -- 93
2018-11-13 18:00:00 9.7 9 Este 29 Este 0 -- -- 89
2018-11-13 17:00:00 9.9 14 Este 22 Este 0 -- -- 89
2018-11-13 16:00:00 10 10 Nordeste 19 Nordeste 0 -- -- 89
2018-11-13 15:00:00 9.6 7 Nordeste 19 Nordeste 0 -- -- 90
2018-11-13 14:00:00 9.5 9 Este 22 Nordeste 0 -- -- 92
2018-11-13 13:00:00 8.9 12 Este 24 Este 0 -- -- 94
2018-11-13 12:00:00 8 16 Este 26 Este 0 -- -- 96
2018-11-13 11:00:00 7.4 11 Este 19 Nordeste 0 -- -- 96
2018-11-13 10:00:00 5.9 9 Nordeste 15 Nordeste 0 -- -- 94
2018-11-13 09:00:00 4.6 8 Nordeste 12 Nordeste 0 -- -- 96
2018-11-13 08:00:00 4.2 5 Norte 10 Norte 0 -- -- 95
2018-11-13 07:00:00 5.9 3 Nordeste 10 Este 0 -- -- 94
2018-11-13 06:00:00 6.6 5 Nordeste 10 Nordeste 0 -- -- 96
2018-11-13 05:00:00 6.3 3 Este 12 Nordeste 0 -- -- 98
2018-11-13 04:00:00 5.1 4 Nordeste 6 Este 0 -- -- 99
2018-11-13 03:00:00 4.1 0 Calma 3 Nordeste 0 -- -- 96
2018-11-13 02:00:00 5.1 0 Calma 5 Nordeste 0 -- -- 96
2018-11-13 01:00:00 6.5 3 Norte 5 Norte 0 -- -- 97
2018-11-13 00:00:00 6.1 4 Noroeste 8 Norte 0 -- -- 97
2018-11-12 23:00:00 5.3 3 Norte 5 Norte 0 -- -- 97
2018-11-12 22:00:00 5.4 0 Calma 5 Norte 0 -- -- 95
2018-11-12 21:00:00 6.3 2 Noroeste 6 Norte 0 -- -- 94
2018-11-12 20:00:00 7.3 3 Noroeste 6 Norte 0 -- -- 92
2018-11-12 19:00:00 7.9 4 Norte 11 Norte 0 -- -- 91
2018-11-12 18:00:00 8.4 4 Norte 17 Noroeste 0 -- -- 89
2018-11-12 17:00:00 8.8 9 Noroeste 15 Noroeste 0 -- -- 88
2018-11-12 16:00:00 9.6 8 Norte 15 Norte 0 -- -- 88
2018-11-12 15:00:00 9.2 8 Norte 14 Norte 0 -- -- 90
2018-11-12 14:00:00 8.9 6 Norte 11 Nordeste 0 -- -- 91
2018-11-12 13:00:00 8.3 5 Norte 12 Noroeste 0 -- -- 94
2018-11-12 12:00:00 7.9 5 Norte 12 Norte 0 -- -- 93
2018-11-12 11:00:00 7.5 6 Norte 11 Nordeste 0 -- -- 97
2018-11-12 10:00:00 6.7 5 Norte 8 Norte 0 -- -- 99
2018-11-12 09:00:00 5.7 0 Calma 5 Sur 0 -- -- 98
2018-11-12 08:00:00 5.9 3 Sudeste 7 Sudeste 0 -- -- 98
2018-11-12 07:00:00 6.1 3 Nordeste 6 Noroeste 0 -- -- 97
2018-11-12 06:00:00 6.4 4 Noroeste 9 Noroeste 0 -- -- 98
2018-11-12 05:00:00 6.9 5 Noroeste 15 Oeste 0 -- -- 97
2018-11-12 04:00:00 7.1 9 Oeste 18 Oeste 0 -- -- 97
2018-11-12 03:00:00 7.4 8 Oeste 15 Oeste 0 -- -- 97
2018-11-12 02:00:00 7.5 9 Oeste 17 Oeste 0 -- -- 97
2018-11-12 01:00:00 7.7 11 Oeste 23 Sudoeste 0 -- -- 96
2018-11-12 00:00:00 8 13 Sudoeste 21 Sudoeste 0.6 -- -- 97
2018-11-11 23:00:00 7.9 6 Sudeste 23 Este 0 -- -- 96
2018-11-11 22:00:00 7.9 13 Sudeste 23 Sudeste 0.6 -- -- 97
2018-11-11 21:00:00 7.5 17 Sudeste 23 Sudeste 2.4 -- -- 97
2018-11-11 20:00:00 7.9 3 Oeste 14 Noroeste 3 -- -- 97
2018-11-11 19:00:00 8.2 6 Noroeste 22 Noroeste 3.2 -- -- 97
2018-11-11 18:00:00 8.3 5 Noroeste 14 Norte 6.4 -- -- 97
2018-11-11 17:00:00 8.4 8 Noroeste 20 Norte 5.4 -- -- 96
2018-11-11 16:00:00 9 10 Noroeste 18 Noroeste 6 -- -- 96
2018-11-11 15:00:00 11.2 9 Oeste 17 Sudoeste 3 -- -- 95
2018-11-11 14:00:00 11.2 13 Sudoeste 46 Sudoeste 6.8 -- -- 94
2018-11-11 13:00:00 12.6 23 Sur 45 Sudoeste 0.8 -- -- 90
2018-11-11 12:00:00 12.5 19 Sur 42 Sur 0.6 -- -- 93
2018-11-11 11:00:00 11.7 21 Sur 34 Sur 0.4 -- -- 92
2018-11-11 10:00:00 11.4 15 Sur 30 Sur 0 -- -- 89
2018-11-11 09:00:00 11.3 16 Sur 33 Sur 0 -- -- 88
2018-11-11 08:00:00 11.2 15 Sur 31 Sur 0 -- -- 89
2018-11-11 07:00:00 11.1 16 Sudoeste 34 Sudoeste 0 -- -- 87
2018-11-11 06:00:00 11.1 18 Sudoeste 35 Sur 0 -- -- 87
2018-11-11 05:00:00 11.2 23 Sudoeste 37 Sudoeste 0 -- -- 86
2018-11-11 04:00:00 10.9 19 Sudoeste 33 Sudoeste 0 -- -- 87
2018-11-11 03:00:00 10.9 18 Sudoeste 30 Sudoeste 0 -- -- 87
2018-11-11 02:00:00 11.2 17 Sudoeste 40 Sur 0 -- -- 86
2018-11-11 01:00:00 10.9 18 Sudoeste 32 Sudoeste 0 -- -- 90
2018-11-11 00:00:00 10.1 11 Sudoeste 21 Sur 0 -- -- 93
2018-11-10 23:00:00 8.8 2 Sudeste 14 Sur 0 -- -- 92
2018-11-10 22:00:00 9 9 Sudeste 14 Sur 0 -- -- 87
2018-11-10 21:00:00 9.8 7 Sur 24 Sudoeste 0 -- -- 83
2018-11-10 20:00:00 10.2 15 Oeste 26 Oeste 0 -- -- 86
2018-11-10 19:00:00 10.7 14 Oeste 23 Oeste 0 -- -- 85
2018-11-10 18:00:00 11.9 13 Sudoeste 39 Oeste 0 -- -- 80
2018-11-10 17:00:00 12.7 25 Oeste 44 Oeste 0 -- -- 84
2018-11-10 16:00:00 12.4 23 Oeste 45 Sudoeste 0 -- -- 90
2018-11-10 15:00:00 12.1 26 Oeste 51 Sudoeste 0 -- -- 90
2018-11-10 14:00:00 12.5 27 Oeste 48 Sudoeste 0 -- -- 85
2018-11-10 13:00:00 11.8 27 Sudoeste 44 Sudoeste 0 -- -- 90
2018-11-10 12:00:00 11.5 23 Sudoeste 34 Sudoeste 2 -- -- 96
2018-11-10 11:00:00 11.4 12 Sudoeste 19 Sudoeste 3.4 -- -- 97
2018-11-10 10:00:00 11.4 13 Oeste 24 Sudoeste 4.6 -- -- 97
2018-11-10 09:00:00 11.1 13 Sudoeste 33 Sudoeste 3.4 -- -- 97
2018-11-10 08:00:00 11 21 Sur 36 Sudoeste 1.2 -- -- 96
2018-11-10 07:00:00 11 21 Sudoeste 41 Sudoeste 0.4 -- -- 95
2018-11-10 06:00:00 11 25 Sudoeste 48 Sudoeste 0.4 -- -- 94
2018-11-10 05:00:00 10.9 26 Sudoeste 49 Sur 0.2 -- -- 92
2018-11-10 04:00:00 10.8 25 Sudoeste 43 Sur 0 -- -- 91
2018-11-10 03:00:00 10.6 22 Sudoeste 41 Sudoeste 0 -- -- 92
2018-11-10 02:00:00 10.4 22 Sudoeste 35 Sudoeste 0 -- -- 92
2018-11-10 01:00:00 9.9 15 Sur 36 Sur 0.4 -- -- 95
2018-11-10 00:00:00 10.1 21 Sudoeste 40 Sudoeste 0 -- -- 92